Time;durP1;ratioP1;P1;durP2;ratioP2;P2;SDS_P1;SDS_P2;PMS_P1;PMS_P2;Temp;Humidity;BMP_temperature;BMP_pressure;BME280_temperature;BME280_humidity;BME280_pressure;Samples;Min_cycle;Max_cycle;Signal;HPM_P1;HPM_P2
2022/08/01 00:00:43;;;;;;;3.33;2.93;;;20.50;95.20;;;;;;4972572;28;20213;-89
2022/08/01 00:03:09;;;;;;;3.20;3.00;;;20.50;95.60;;;;;;4985537;28;20448;-89
2022/08/01 00:05:35;;;;;;;3.50;3.20;;;20.50;95.50;;;;;;4975709;28;20174;-89
2022/08/01 00:08:00;;;;;;;2.87;2.70;;;20.50;95.50;;;;;;4974982;28;20556;-89
2022/08/01 00:10:26;;;;;;;2.90;2.70;;;20.50;95.50;;;;;;4969851;28;20296;-89
2022/08/01 00:12:51;;;;;;;2.83;2.63;;;20.40;95.80;;;;;;4992343;28;20597;-90
2022/08/01 00:15:18;;;;;;;3.00;2.67;;;20.30;95.90;;;;;;4974724;28;20177;-89
2022/08/01 00:17:44;;;;;;;3.17;2.63;;;20.30;96.10;;;;;;4973327;28;20197;-90
2022/08/01 00:20:11;;;;;;;3.03;2.60;;;20.20;96.20;;;;;;4965989;28;20950;-89
2022/08/01 00:22:37;;;;;;;4.57;2.80;;;20.20;96.30;;;;;;4986182;28;20208;-90
2022/08/01 00:25:04;;;;;;;3.10;2.90;;;20.20;96.50;;;;;;4986042;28;20950;-89
2022/08/01 00:27:29;;;;;;;3.30;2.80;;;20.10;96.00;;;;;;4975642;28;20215;-90
2022/08/01 00:29:55;;;;;;;2.87;2.67;;;20.10;96.30;;;;;;4984448;28;20798;-88
2022/08/01 00:32:21;;;;;;;3.00;2.80;;;20.10;96.20;;;;;;4966435;28;20320;-89
2022/08/01 00:34:48;;;;;;;2.70;2.50;;;20.10;96.20;;;;;;4988591;28;20702;-88
2022/08/01 00:37:17;;;;;;;3.07;2.70;;;20.20;96.00;;;;;;4974604;28;21266;-90
2022/08/01 00:39:43;;;;;;;2.70;2.50;;;20.20;96.20;;;;;;4975120;28;20440;-90
2022/08/01 00:42:15;;;;;;;2.77;2.57;;;20.20;96.00;;;;;;4973858;28;20441;-90
2022/08/01 00:44:43;;;;;;;3.07;2.80;;;20.30;96.00;;;;;;4970406;28;20308;-90
2022/08/01 00:47:11;;;;;;;3.77;2.40;;;20.20;95.80;;;;;;4976755;28;20464;-90
2022/08/01 00:49:37;;;;;;;2.83;2.63;;;20.20;96.20;;;;;;4975686;28;20488;-90
2022/08/01 00:52:04;;;;;;;2.80;2.60;;;20.10;96.10;;;;;;4995255;28;20526;-90
2022/08/01 00:54:30;;;;;;;3.00;2.80;;;20.00;96.50;;;;;;4989820;28;23902;-90
2022/08/01 00:56:57;;;;;;;2.63;2.40;;;19.90;97.00;;;;;;4970785;28;21057;-90
2022/08/01 00:59:23;;;;;;;3.00;2.57;;;19.80;97.20;;;;;;4988397;28;20443;-90
2022/08/01 01:01:49;;;;;;;3.30;3.00;;;19.70;97.70;;;;;;4977547;28;20485;-90
2022/08/01 01:04:16;;;;;;;2.97;2.77;;;19.70;97.70;;;;;;4969395;28;20532;-90
2022/08/01 01:06:48;;;;;;;3.40;3.20;;;19.50;98.00;;;;;;4981502;28;20622;-90
2022/08/01 01:09:33;;;;;;;2.93;2.73;;;19.40;98.30;;;;;;4987397;28;20433;-89
2022/08/01 01:12:24;;;;;;;2.70;2.30;;;19.40;98.60;;;;;;4968350;28;20488;-90
2022/08/01 01:15:25;;;;;;;5.50;2.93;;;19.50;98.50;;;;;;4978602;28;21067;-88
2022/08/01 01:18:09;;;;;;;3.20;2.90;;;19.40;98.50;;;;;;4962698;28;20444;-89
2022/08/01 01:20:39;;;;;;;3.63;2.80;;;19.40;98.60;;;;;;4968177;28;20506;-89
2022/08/01 01:23:23;;;;;;;3.63;3.27;;;19.40;98.90;;;;;;4967371;28;20460;-89
2022/08/01 01:26:06;;;;;;;3.20;3.00;;;19.40;98.70;;;;;;4960161;28;20978;-89
2022/08/01 01:29:02;;;;;;;3.17;2.97;;;19.40;98.70;;;;;;4965307;28;20467;-89
2022/08/01 01:31:29;;;;;;;2.53;2.30;;;19.30;99.00;;;;;;4958599;28;20579;-89
2022/08/01 01:33:56;;;;;;;3.10;2.77;;;19.30;99.40;;;;;;4978797;28;20618;-90
2022/08/01 01:36:25;;;;;;;3.10;2.90;;;19.30;99.10;;;;;;4963643;28;20440;-89
2022/08/01 01:39:00;;;;;;;3.03;2.83;;;19.30;99.40;;;;;;4982375;28;20620;-90
2022/08/01 01:41:27;;;;;;;3.03;2.83;;;19.20;99.70;;;;;;4963686;28;20449;-90
2022/08/01 01:43:54;;;;;;;3.13;2.87;;;19.20;99.90;;;;;;4975218;28;20492;-90
2022/08/01 01:46:24;;;;;;;3.07;2.87;;;19.30;99.90;;;;;;4961015;28;20447;-89
2022/08/01 01:48:51;;;;;;;3.13;2.93;;;19.30;99.90;;;;;;4976718;28;20864;-89
2022/08/01 01:51:20;;;;;;;2.70;2.50;;;19.20;99.90;;;;;;4976346;28;20912;-88
2022/08/01 01:53:49;;;;;;;3.23;3.00;;;19.20;99.90;;;;;;4962344;28;20471;-89
2022/08/01 01:56:16;;;;;;;3.50;3.30;;;19.10;99.90;;;;;;4974428;28;20479;-89
2022/08/01 01:58:44;;;;;;;3.33;3.00;;;19.10;99.90;;;;;;4959104;28;22322;-90
2022/08/01 02:01:12;;;;;;;3.73;3.43;;;19.00;99.90;;;;;;4974142;28;20919;-91
2022/08/01 02:03:39;;;;;;;3.30;3.00;;;19.00;99.90;;;;;;4974863;28;20505;-90
2022/08/01 02:06:06;;;;;;;4.03;3.73;;;19.00;99.90;;;;;;4983857;28;20536;-90
2022/08/01 02:08:33;;;;;;;4.10;3.70;;;18.90;99.90;;;;;;4978701;28;20436;-91
2022/08/01 02:11:19;;;;;;;3.40;3.17;;;19.00;99.90;;;;;;4973134;28;20498;-89
2022/08/01 02:13:55;;;;;;;3.70;3.50;;;19.00;99.90;;;;;;4975493;28;20546;-90
2022/08/01 02:16:24;;;;;;;4.33;3.20;;;19.00;99.90;;;;;;4960052;28;20976;-90
2022/08/01 02:18:50;;;;;;;3.47;3.27;;;18.90;99.90;;;;;;4965475;28;20443;-88
2022/08/01 02:21:22;;;;;;;3.63;3.37;;;18.80;99.90;;;;;;4980725;28;20448;-90
2022/08/01 02:23:48;;;;;;;3.63;3.40;;;18.60;99.90;;;;;;4979513;28;21977;-89
2022/08/01 02:26:17;;;;;;;4.77;3.43;;;18.60;99.90;;;;;;4965204;28;20450;-90
2022/08/01 02:29:06;;;;;;;3.47;3.27;;;18.60;99.90;;;;;;4981680;28;22440;-90
2022/08/01 02:31:34;;;;;;;4.20;3.80;;;18.70;99.90;;;;;;4976703;28;20479;-90
2022/08/01 02:34:06;;;;;;;3.93;3.63;;;18.60;99.90;;;;;;4973594;28;20967;-89
2022/08/01 02:36:35;;;;;;;4.27;3.97;;;18.50;99.90;;;;;;4976460;28;20503;-90
2022/08/01 02:39:08;;;;;;;4.37;4.07;;;18.50;99.90;;;;;;4960839;28;20531;-90
2022/08/01 02:41:42;;;;;;;4.40;4.10;;;18.50;99.90;;;;;;4981545;28;20789;-90
2022/08/01 02:44:10;;;;;;;3.57;3.37;;;18.40;99.90;;;;;;4964433;28;20444;-90
2022/08/01 02:46:44;;;;;;;4.07;3.67;;;18.40;99.90;;;;;;4962201;28;20473;-90
2022/08/01 02:49:12;;;;;;;4.10;3.80;;;18.40;99.90;;;;;;4972145;28;20476;-90
2022/08/01 02:51:39;;;;;;;4.23;3.87;;;18.40;99.90;;;;;;4978338;28;20491;-91
2022/08/01 02:54:07;;;;;;;4.93;3.80;;;18.50;99.90;;;;;;4970655;28;20445;-90
2022/08/01 02:56:34;;;;;;;3.90;3.57;;;18.40;99.90;;;;;;4972455;28;21444;-91
2022/08/01 02:59:12;;;;;;;4.93;3.90;;;18.50;99.90;;;;;;4978089;28;20453;-89
2022/08/01 03:01:39;;;;;;;4.10;3.80;;;18.50;99.90;;;;;;4968331;28;20444;-90
2022/08/01 03:04:05;;;;;;;3.97;3.77;;;18.50;99.90;;;;;;4980797;28;20500;-90
2022/08/01 03:06:32;;;;;;;4.20;3.80;;;18.60;99.90;;;;;;4967670;28;20445;-90
2022/08/01 03:09:01;;;;;;;4.20;3.90;;;18.60;99.90;;;;;;4971290;28;20468;-90
2022/08/01 03:11:29;;;;;;;3.87;3.57;;;18.60;99.90;;;;;;4968414;28;20567;-90
2022/08/01 03:13:56;;;;;;;4.20;3.90;;;18.70;99.90;;;;;;4987359;28;20734;-89
2022/08/01 03:16:24;;;;;;;4.47;4.07;;;18.60;99.90;;;;;;4979404;28;20448;-89
2022/08/01 03:18:53;;;;;;;4.23;3.83;;;18.40;99.90;;;;;;4975531;28;20662;-89
2022/08/01 03:21:21;;;;;;;5.83;4.40;;;18.40;99.90;;;;;;4959453;28;20452;-89
2022/08/01 03:23:49;;;;;;;4.67;4.37;;;18.40;99.90;;;;;;4973008;28;20443;-90
2022/08/01 03:26:15;;;;;;;4.20;3.90;;;18.40;99.90;;;;;;4963292;28;20764;-89
2022/08/01 03:28:44;;;;;;;4.50;4.20;;;18.40;99.90;;;;;;4979994;28;20963;-90
2022/08/01 03:31:12;;;;;;;3.70;3.40;;;18.40;99.90;;;;;;4979933;28;20526;-90
2022/08/01 03:33:48;;;;;;;4.03;3.73;;;18.40;99.90;;;;;;4989633;28;20448;-91
2022/08/01 03:36:15;;;;;;;3.63;3.43;;;18.30;99.90;;;;;;4964242;28;20433;-89
2022/08/01 03:38:43;;;;;;;4.20;3.90;;;18.40;99.90;;;;;;4973749;28;22554;-90
2022/08/01 03:41:22;;;;;;;4.13;3.73;;;18.40;99.90;;;;;;4963971;28;20582;-89
2022/08/01 03:43:56;;;;;;;4.73;4.30;;;18.40;99.90;;;;;;4993290;28;21076;-89
2022/08/01 03:46:32;;;;;;;4.43;4.03;;;18.30;99.90;;;;;;4986402;28;20939;-91
2022/08/01 03:49:03;;;;;;;4.40;4.10;;;18.30;99.90;;;;;;4966278;28;20531;-89
2022/08/01 03:51:30;;;;;;;4.27;3.77;;;18.30;99.90;;;;;;4987549;28;20607;-88
2022/08/01 03:53:56;;;;;;;4.47;4.17;;;18.40;99.90;;;;;;4980208;28;20519;-88
2022/08/01 03:56:23;;;;;;;4.40;3.80;;;18.40;99.90;;;;;;4966674;28;20532;-88
2022/08/01 03:58:50;;;;;;;4.23;3.93;;;18.40;99.90;;;;;;4971198;28;20524;-88
2022/08/01 04:01:16;;;;;;;3.90;3.60;;;18.40;99.90;;;;;;4959587;28;22047;-88
2022/08/01 04:03:43;;;;;;;7.90;4.10;;;18.50;99.90;;;;;;4962325;28;20951;-89
2022/08/01 04:06:10;;;;;;;4.00;3.70;;;18.50;99.90;;;;;;4983864;28;20794;-89
2022/08/01 04:08:40;;;;;;;4.17;3.87;;;18.50;99.90;;;;;;4970638;28;20806;-89
2022/08/01 04:11:07;;;;;;;4.27;3.97;;;18.40;99.90;;;;;;4965378;28;20472;-89
2022/08/01 04:13:33;;;;;;;3.70;3.47;;;18.40;99.90;;;;;;4986243;28;20441;-89
2022/08/01 04:15:59;;;;;;;4.57;4.27;;;18.40;99.90;;;;;;4994553;28;20452;-89
2022/08/01 04:18:24;;;;;;;4.63;4.17;;;18.40;99.90;;;;;;4969955;28;20205;-89
2022/08/01 04:20:50;;;;;;;4.43;4.13;;;18.40;99.90;;;;;;4965644;28;20931;-89
2022/08/01 04:23:20;;;;;;;4.30;4.00;;;18.30;99.90;;;;;;4984335;28;20265;-89
2022/08/01 04:25:47;;;;;;;5.03;4.43;;;18.30;99.90;;;;;;4963187;28;20186;-89
2022/08/01 04:28:16;;;;;;;4.20;3.90;;;18.20;99.90;;;;;;4967811;28;20443;-89
2022/08/01 04:30:44;;;;;;;4.60;4.30;;;18.20;99.90;;;;;;4978045;28;20587;-89
2022/08/01 04:33:15;;;;;;;4.20;3.90;;;18.30;99.90;;;;;;4960713;28;20456;-89
2022/08/01 04:35:45;;;;;;;4.57;4.00;;;18.20;99.90;;;;;;4981077;28;20456;-89
2022/08/01 04:38:14;;;;;;;4.37;4.07;;;18.20;99.90;;;;;;4984715;28;20448;-87
2022/08/01 04:40:42;;;;;;;4.87;4.43;;;18.20;99.90;;;;;;4961968;28;20925;-87
2022/08/01 04:43:10;;;;;;;4.90;4.50;;;18.20;99.90;;;;;;4968787;28;20467;-89
2022/08/01 04:45:36;;;;;;;4.80;4.50;;;18.10;99.90;;;;;;4960071;28;21506;-88
2022/08/01 04:48:06;;;;;;;4.20;4.00;;;18.10;99.90;;;;;;4983823;28;20441;-89
2022/08/01 04:50:34;;;;;;;4.50;4.20;;;18.10;99.90;;;;;;4988270;28;20448;-88
2022/08/01 04:53:02;;;;;;;4.33;4.03;;;18.10;99.90;;;;;;4961839;28;20489;-90
2022/08/01 04:55:35;;;;;;;4.53;4.13;;;18.00;99.90;;;;;;4966016;28;20443;-89
2022/08/01 04:58:01;;;;;;;4.37;3.73;;;18.00;99.90;;;;;;4975748;28;20507;-91
2022/08/01 05:00:28;;;;;;;4.97;4.57;;;18.00;99.90;;;;;;4969078;28;20865;-89
2022/08/01 05:02:53;;;;;;;4.67;4.27;;;18.00;99.90;;;;;;4959080;28;20941;-88
2022/08/01 05:05:31;;;;;;;4.80;4.37;;;17.90;99.90;;;;;;4977508;28;20441;-90
2022/08/01 05:07:57;;;;;;;20.70;18.90;;;17.90;99.90;;;;;;4967008;28;20189;-89
2022/08/01 05:10:39;;;;;;;62.67;56.97;;;17.90;99.90;;;;;;4965677;28;20495;-92
2022/08/01 05:13:06;;;;;;;4.77;4.40;;;18.00;99.90;;;;;;4968004;28;21413;-88
2022/08/01 05:15:31;;;;;;;4.43;4.13;;;18.10;99.90;;;;;;4988952;28;21013;-88
2022/08/01 05:17:57;;;;;;;4.67;4.07;;;18.10;99.90;;;;;;4965265;28;20437;-88
2022/08/01 05:20:23;;;;;;;4.47;3.60;;;18.20;99.90;;;;;;4985292;28;20197;-88
2022/08/01 05:22:48;;;;;;;4.40;4.07;;;18.30;99.90;;;;;;4966790;28;20186;-88
2022/08/01 05:25:14;;;;;;;4.03;3.63;;;18.40;99.90;;;;;;4981753;28;20592;-88
2022/08/01 05:27:40;;;;;;;5.53;4.30;;;18.50;99.90;;;;;;4982495;28;20536;-88
2022/08/01 05:30:09;;;;;;;5.50;4.03;;;18.60;99.90;;;;;;4985225;28;20540;-88
2022/08/01 05:32:47;;;;;;;4.90;4.20;;;18.70;99.90;;;;;;4980900;28;20496;-88
2022/08/01 05:35:13;;;;;;;4.00;3.63;;;18.70;99.90;;;;;;4983425;28;20456;-88
2022/08/01 05:37:38;;;;;;;4.63;4.23;;;18.80;99.90;;;;;;4959754;28;20437;-89
2022/08/01 05:40:05;;;;;;;4.33;3.93;;;18.90;99.90;;;;;;4982278;28;20218;-89
2022/08/01 05:42:33;;;;;;;3.77;3.47;;;18.90;99.90;;;;;;4983634;28;20182;-89
2022/08/01 05:44:59;;;;;;;4.40;4.00;;;19.00;99.90;;;;;;4973236;28;20440;-90
2022/08/01 05:47:24;;;;;;;3.77;3.50;;;19.00;99.90;;;;;;4986802;28;20990;-91
2022/08/01 05:49:55;;;;;;;4.73;4.13;;;18.80;99.90;;;;;;4971383;28;20224;-92
2022/08/01 05:52:24;;;;;;;4.13;3.73;;;18.70;99.90;;;;;;4986282;28;20522;-91
2022/08/01 05:54:54;;;;;;;4.00;3.70;;;18.80;99.90;;;;;;4978161;28;20453;-91
2022/08/01 05:57:20;;;;;;;4.50;4.10;;;18.80;99.90;;;;;;4967705;28;20551;-90
2022/08/01 05:59:57;;;;;;;3.93;3.63;;;18.90;99.90;;;;;;4968185;28;21154;-91
2022/08/01 06:02:29;;;;;;;4.70;4.30;;;19.00;99.90;;;;;;4968134;28;20440;-91
2022/08/01 06:04:55;;;;;;;4.50;4.20;;;19.10;99.90;;;;;;4968257;28;22548;-91
2022/08/01 06:07:20;;;;;;;4.30;3.90;;;19.20;99.90;;;;;;4962572;28;20449;-89
2022/08/01 06:09:53;;;;;;;3.90;3.60;;;19.20;99.90;;;;;;4981288;28;21001;-90
2022/08/01 06:12:19;;;;;;;4.87;4.47;;;19.40;99.90;;;;;;4967278;28;20214;-90
2022/08/01 06:14:47;;;;;;;4.30;4.00;;;19.60;99.90;;;;;;4976478;28;20433;-90
2022/08/01 06:17:56;;;;;;;4.30;3.93;;;19.70;99.90;;;;;;4968074;28;20197;-92
2022/08/01 06:20:31;;;;;;;4.23;3.83;;;20.00;99.90;;;;;;4965408;28;20437;-90
2022/08/01 06:23:04;;;;;;;4.20;3.90;;;20.20;99.90;;;;;;4981930;28;20712;-89
2022/08/01 06:25:33;;;;;;;4.17;3.83;;;20.30;99.90;;;;;;4980446;28;20437;-90
2022/08/01 06:27:59;;;;;;;3.53;3.23;;;20.30;99.90;;;;;;4981317;28;20445;-91
2022/08/01 06:30:25;;;;;;;3.63;3.43;;;20.40;99.90;;;;;;4982282;28;20842;-90
2022/08/01 06:32:50;;;;;;;4.13;3.83;;;20.50;99.90;;;;;;4960811;28;20461;-89
2022/08/01 06:35:16;;;;;;;4.30;3.73;;;20.70;99.90;;;;;;4963719;28;20368;-89
2022/08/01 06:37:41;;;;;;;4.30;4.00;;;20.80;99.90;;;;;;4963383;28;20221;-90
2022/08/01 06:40:09;;;;;;;8.43;3.70;;;20.80;99.90;;;;;;4961328;28;20182;-89
2022/08/01 06:42:35;;;;;;;4.27;3.20;;;20.90;99.90;;;;;;4980749;28;20285;-92
2022/08/01 06:45:05;;;;;;;6.83;3.50;;;20.90;99.90;;;;;;4970141;28;20536;-92
2022/08/01 06:47:30;;;;;;;4.50;4.10;;;21.00;99.90;;;;;;4965897;28;20213;-92
2022/08/01 06:49:56;;;;;;;4.13;3.73;;;21.10;99.90;;;;;;4979950;28;20531;-91
2022/08/01 06:52:21;;;;;;;4.40;4.00;;;21.10;99.90;;;;;;4963846;28;20226;-91
2022/08/01 06:54:48;;;;;;;4.00;3.70;;;21.20;99.90;;;;;;4977238;28;20178;-92
2022/08/01 06:57:14;;;;;;;3.70;3.50;;;21.20;99.90;;;;;;4964467;28;20185;-91
2022/08/01 06:59:40;;;;;;;4.90;4.50;;;21.40;99.90;;;;;;4980911;28;20472;-91
2022/08/01 07:02:06;;;;;;;3.90;3.60;;;21.40;99.90;;;;;;4988759;28;20644;-90
2022/08/01 07:04:32;;;;;;;4.00;3.70;;;21.40;99.90;;;;;;4966995;28;20179;-90
2022/08/01 07:06:57;;;;;;;3.60;3.40;;;21.60;99.90;;;;;;4984004;28;20440;-90
2022/08/01 07:09:23;;;;;;;3.73;3.50;;;21.80;99.90;;;;;;4966560;28;20674;-89
2022/08/01 07:11:50;;;;;;;5.60;3.70;;;21.90;99.90;;;;;;4974911;28;20213;-88
2022/08/01 07:14:15;;;;;;;3.63;3.33;;;22.10;99.90;;;;;;4986828;28;20202;-89
2022/08/01 07:16:41;;;;;;;4.13;3.83;;;22.20;99.90;;;;;;4986872;28;22498;-89
2022/08/01 07:19:07;;;;;;;3.80;3.60;;;22.20;99.90;;;;;;4967930;28;20232;-89
2022/08/01 07:21:33;;;;;;;3.70;3.40;;;22.20;99.90;;;;;;4986243;28;20211;-90
2022/08/01 07:23:58;;;;;;;4.47;3.77;;;22.20;99.90;;;;;;4965676;28;20875;-89
2022/08/01 07:26:24;;;;;;;3.90;3.60;;;22.30;99.90;;;;;;4967105;28;20187;-89
2022/08/01 07:28:50;;;;;;;3.30;3.10;;;22.40;99.90;;;;;;4985572;28;21930;-90
2022/08/01 07:31:15;;;;;;;4.20;3.03;;;22.40;99.90;;;;;;4967082;28;20683;-88
2022/08/01 07:33:41;;;;;;;3.70;3.40;;;22.60;99.90;;;;;;4986709;28;20676;-90
2022/08/01 07:36:07;;;;;;;3.10;2.90;;;22.70;99.90;;;;;;4983944;28;21751;-90
2022/08/01 07:38:32;;;;;;;3.70;3.37;;;22.80;99.90;;;;;;4983660;28;20190;-89
2022/08/01 07:40:58;;;;;;;2.97;2.67;;;22.90;99.90;;;;;;4985364;28;20294;-91
2022/08/01 07:43:23;;;;;;;2.30;2.10;;;23.00;99.90;;;;;;4970313;28;20189;-93
2022/08/01 07:45:49;;;;;;;2.27;2.07;;;23.10;99.90;;;;;;4980683;28;20673;-89
2022/08/01 07:48:14;;;;;;;3.03;1.80;;;22.90;99.90;;;;;;4985899;28;22105;-91
2022/08/01 07:50:40;;;;;;;2.23;2.03;;;23.00;99.90;;;;;;4989057;28;20559;-89
2022/08/01 07:53:06;;;;;;;2.00;1.90;;;22.90;99.70;;;;;;4981866;28;20560;-89
2022/08/01 07:55:40;;;;;;;1.87;1.77;;;22.90;99.80;;;;;;4984299;28;20178;-90
2022/08/01 07:58:05;;;;;;;1.87;1.70;;;23.10;99.40;;;;;;4987139;23;20239;-90
2022/08/01 08:00:31;;;;;;;2.37;2.03;;;23.40;98.80;;;;;;5000098;28;20471;-90
2022/08/01 08:02:59;;;;;;;2.20;2.10;;;23.40;98.30;;;;;;4983827;28;20613;-90
2022/08/01 08:05:25;;;;;;;2.07;1.93;;;23.40;98.60;;;;;;4992435;28;20184;-89
2022/08/01 08:07:51;;;;;;;3.10;1.93;;;23.40;98.30;;;;;;5016743;28;21001;-90
2022/08/01 08:10:16;;;;;;;2.17;2.07;;;23.20;98.40;;;;;;4998002;28;20440;-90
2022/08/01 08:12:42;;;;;;;2.43;2.10;;;23.40;98.90;;;;;;5008762;28;20232;-91
2022/08/01 08:15:08;;;;;;;3.10;2.30;;;23.70;98.50;;;;;;4996616;28;20199;-90
2022/08/01 08:17:34;;;;;;;2.40;2.20;;;23.80;97.80;;;;;;4995582;28;20197;-91
2022/08/01 08:20:03;;;;;;;2.70;2.50;;;24.00;98.00;;;;;;4988271;28;20447;-89
2022/08/01 08:22:28;;;;;;;4.67;2.90;;;24.30;97.20;;;;;;4993900;28;20220;-90
2022/08/01 08:24:54;;;;;;;2.43;2.33;;;24.30;98.00;;;;;;4993319;28;20995;-89
2022/08/01 08:27:19;;;;;;;2.80;2.50;;;24.10;97.40;;;;;;4998495;28;20199;-89
2022/08/01 08:29:45;;;;;;;2.27;2.10;;;24.30;97.40;;;;;;4986169;28;20190;-90
2022/08/01 08:32:11;;;;;;;3.40;2.50;;;24.30;97.30;;;;;;4994861;28;20264;-90
2022/08/01 08:34:49;;;;;;;2.60;2.40;;;24.50;97.30;;;;;;4985221;28;20696;-89
2022/08/01 08:37:29;;;;;;;5.60;2.60;;;24.70;96.80;;;;;;4991239;28;20184;-90
2022/08/01 08:39:54;;;;;;;3.00;2.80;;;24.90;96.90;;;;;;4987508;28;20440;-89
2022/08/01 08:42:33;;;;;;;2.83;2.63;;;24.80;96.20;;;;;;4988055;28;20909;-90
2022/08/01 08:44:59;;;;;;;3.03;2.57;;;24.50;96.80;;;;;;4986468;28;20177;-90
2022/08/01 08:47:27;;;;;;;3.00;2.80;;;24.70;96.40;;;;;;5010809;28;20993;-90
2022/08/01 08:49:55;;;;;;;3.23;3.03;;;25.20;96.00;;;;;;4983570;28;20189;-91
2022/08/01 08:52:22;;;;;;;2.50;2.30;;;25.60;95.30;;;;;;4997924;28;21010;-89
2022/08/01 08:54:50;;;;;;;2.93;2.73;;;25.70;94.60;;;;;;4980492;28;20467;-89
2022/08/01 08:57:19;;;;;;;3.37;2.67;;;25.30;95.20;;;;;;4977962;28;20448;-90
2022/08/01 09:00:14;;;;;;;3.07;2.87;;;24.90;95.30;;;;;;4977834;28;20963;-93
2022/08/01 09:02:45;;;;;;;3.73;3.03;;;24.90;95.80;;;;;;4995485;28;20548;-93
2022/08/01 09:05:11;;;;;;;3.00;2.80;;;24.70;95.30;;;;;;4986561;28;20476;-93
2022/08/01 09:07:40;;;;;;;3.23;2.67;;;24.80;95.20;;;;;;4992397;28;21428;-92
2022/08/01 09:10:09;;;;;;;3.00;2.80;;;25.20;95.10;;;;;;4982164;28;20570;-92
2022/08/01 09:12:37;;;;;;;2.97;2.73;;;25.70;94.70;;;;;;4979334;28;20826;-92
2022/08/01 09:15:05;;;;;;;3.27;3.07;;;26.30;93.80;;;;;;4980907;28;20538;-91
2022/08/01 09:17:49;;;;;;;3.07;2.87;;;26.60;92.90;;;;;;4977774;28;20451;-90
2022/08/01 09:20:24;;;;;;;3.83;3.53;;;26.70;92.40;;;;;;4983310;28;20439;-90
2022/08/01 09:22:50;;;;;;;3.37;3.07;;;26.70;91.50;;;;;;4989782;28;21251;-91
2022/08/01 09:25:15;;;;;;;3.63;3.33;;;26.60;91.50;;;;;;4984255;28;20432;-92
2022/08/01 09:27:41;;;;;;;3.47;3.27;;;26.60;91.70;;;;;;4981847;28;20197;-91
2022/08/01 09:30:15;;;;;;;3.30;3.10;;;25.50;92.50;;;;;;4984046;28;20191;-91
2022/08/01 09:32:55;;;;;;;3.10;2.90;;;25.30;93.80;;;;;;4997079;28;20260;-91
2022/08/01 09:35:37;;;;;;;3.20;3.00;;;25.70;93.50;;;;;;4982150;28;20481;-90
2022/08/01 09:38:26;;;;;;;4.37;3.30;;;25.80;93.50;;;;;;4991095;28;20801;-91
2022/08/01 09:41:00;;;;;;;3.80;3.50;;;25.80;93.40;;;;;;4981552;28;21004;-90
2022/08/01 09:43:41;;;;;;;3.47;3.27;;;26.10;92.80;;;;;;4974397;28;20445;-90
2022/08/01 09:46:13;;;;;;;2.93;2.77;;;26.10;91.70;;;;;;4978859;28;20458;-89
2022/08/01 09:48:54;;;;;;;4.17;3.80;;;25.70;92.10;;;;;;4976808;28;20441;-90
2022/08/01 09:51:28;;;;;;;3.73;3.43;;;25.40;93.30;;;;;;4980323;28;20475;-92
2022/08/01 09:53:57;;;;;;;3.27;2.97;;;25.60;93.10;;;;;;4982849;28;20435;-91
2022/08/01 09:56:23;;;;;;;3.27;3.07;;;26.00;92.20;;;;;;4979649;28;20643;-90
2022/08/01 09:59:09;;;;;;;3.70;3.40;;;26.60;91.00;;;;;;4978110;28;21175;-92
2022/08/01 10:04:34;;;;;;;3.97;3.50;;;26.60;91.20;;;;;;4968232;28;20455;-93
2022/08/01 10:07:06;;;;;;;4.60;4.20;;;26.30;92.30;;;;;;4981806;28;20804;-91
2022/08/01 10:09:35;;;;;;;4.47;4.17;;;26.50;91.40;;;;;;4984669;28;20276;-91
2022/08/01 10:12:14;;;;;;;4.53;4.23;;;26.40;91.60;;;;;;4978469;28;20484;-92
2022/08/01 10:14:41;;;;;;;4.70;4.40;;;26.30;92.70;;;;;;4976182;28;20436;-92
2022/08/01 10:17:18;;;;;;;4.63;4.00;;;26.60;93.00;;;;;;4984192;28;20451;-92
2022/08/01 10:19:49;;;;;;;4.40;4.10;;;26.80;91.40;;;;;;4978876;28;20451;-92
2022/08/01 10:22:17;;;;;;;4.57;3.97;;;26.90;91.90;;;;;;4998158;28;20444;-92
2022/08/01 10:24:45;;;;;;;4.90;4.50;;;27.00;90.50;;;;;;4976994;28;20438;-92
2022/08/01 10:27:11;;;;;;;4.80;4.40;;;27.60;90.80;;;;;;4991831;28;21150;-93
2022/08/01 10:30:00;;;;;;;4.20;3.97;;;28.50;91.20;;;;;;4979241;28;20436;-95
2022/08/01 10:32:31;;;;;;;6.33;4.87;;;28.90;84.70;;;;;;4978822;28;20949;-93
2022/08/01 10:35:00;;;;;;;5.33;4.93;;;28.80;87.00;;;;;;4976801;28;23124;-91
2022/08/01 10:37:50;;;;;;;5.40;5.00;;;27.90;86.90;;;;;;4980582;28;20439;-95
2022/08/01 10:40:20;;;;;;;4.77;4.37;;;27.00;88.10;;;;;;4988330;28;20440;-96
2022/08/01 10:42:46;;;;;;;5.10;4.80;;;26.40;90.00;;;;;;4985015;28;20452;-96
2022/08/01 10:45:15;;;;;;;6.00;5.60;;;26.00;91.30;;;;;;5008040;28;20448;-94
2022/08/01 10:48:30;;;;;;;6.93;6.33;;;25.70;93.30;;;;;;4980950;28;20779;-94
2022/08/01 10:51:05;;;;;;;6.60;6.10;;;25.60;93.60;;;;;;4959021;28;20475;-93
2022/08/01 10:53:33;;;;;;;6.83;6.40;;;25.30;94.50;;;;;;4979430;28;20447;-93
2022/08/01 10:56:24;;;;;;;6.87;6.27;;;25.20;94.50;;;;;;4980054;28;20471;-94
2022/08/01 10:59:00;;;;;;;6.77;6.00;;;25.70;94.50;;;;;;4995220;28;20456;-91
2022/08/01 11:01:32;;;;;;;6.27;5.87;;;26.40;93.80;;;;;;4979910;28;20519;-96
2022/08/01 11:04:09;;;;;;;7.10;6.40;;;27.20;93.60;;;;;;4980971;28;20447;-93
2022/08/01 11:06:38;;;;;;;7.10;6.40;;;27.70;92.10;;;;;;4983833;28;20459;-94
2022/08/01 11:09:11;;;;;;;6.37;5.87;;;27.60;91.80;;;;;;4980395;28;20856;-92
2022/08/01 11:12:01;;;;;;;5.90;5.40;;;27.70;91.90;;;;;;4996475;28;20475;-92
2022/08/01 11:14:30;;;;;;;5.77;5.40;;;27.60;89.70;;;;;;4968084;28;20950;-92
2022/08/01 11:16:56;;;;;;;6.40;5.90;;;28.00;89.60;;;;;;4978841;28;20447;-90
2022/08/01 11:19:22;;;;;;;6.30;5.90;;;28.10;89.90;;;;;;4991501;28;20450;-90
2022/08/01 11:21:54;;;;;;;5.80;5.40;;;28.70;91.20;;;;;;4985991;28;20483;-93
2022/08/01 11:24:45;;;;;;;6.10;5.70;;;28.90;90.00;;;;;;4967272;28;20778;-90
2022/08/01 11:28:12;;;;;;;;;;;;;;;;;;;;;
2022/08/01 11:30:39;;;;;;;6.17;5.67;;;27.00;90.80;;;;;;4980832;28;20453;-94
2022/08/01 11:33:05;;;;;;;5.47;5.07;;;26.60;92.00;;;;;;4983764;28;20452;-96
2022/08/01 11:35:31;;;;;;;6.10;5.70;;;26.60;92.60;;;;;;4987415;28;20534;-93
2022/08/01 11:38:30;;;;;;;6.83;5.30;;;26.50;92.70;;;;;;4982122;28;20470;-95
2022/08/01 11:41:11;;;;;;;5.77;5.37;;;26.40;91.50;;;;;;4997134;28;20192;-95
2022/08/01 11:43:57;;;;;;;5.43;5.10;;;26.10;92.40;;;;;;4988865;28;20809;-94
2022/08/01 11:50:01;;;;;;;4.93;4.63;;;26.10;93.20;;;;;;4980274;28;20972;-93
2022/08/01 11:52:31;;;;;;;4.40;4.00;;;26.10;93.80;;;;;;4986640;28;20476;-92
2022/08/01 11:55:11;;;;;;;4.70;4.40;;;26.20;93.30;;;;;;4975121;28;20177;-96
2022/08/01 11:58:15;;;;;;;4.30;4.00;;;26.20;92.40;;;;;;5006253;28;20467;-95
2022/08/01 12:01:04;;;;;;;6.33;4.07;;;26.30;93.20;;;;;;5001129;28;20475;-96
2022/08/01 12:03:36;;;;;;;4.87;4.47;;;26.50;92.40;;;;;;4997447;28;20452;-96
2022/08/01 12:06:01;;;;;;;4.63;4.23;;;26.30;92.00;;;;;;4987615;28;20839;-95
2022/08/01 12:08:33;;;;;;;4.63;4.23;;;26.30;92.40;;;;;;4986136;28;20624;-95
2022/08/01 12:11:04;;;;;;;3.80;3.60;;;26.40;92.90;;;;;;5006245;28;20236;-94
2022/08/01 12:13:41;;;;;;;4.37;4.07;;;26.30;92.60;;;;;;4976247;28;20476;-96
2022/08/01 12:16:12;;;;;;;4.50;4.20;;;26.30;92.80;;;;;;4983384;28;20525;-94
2022/08/01 12:21:12;;;;;;;4.17;3.97;;;26.40;93.30;;;;;;5000337;28;20577;-92
2022/08/01 12:23:38;;;;;;;4.87;4.57;;;26.40;92.20;;;;;;4993735;28;20443;-92
2022/08/01 12:26:45;;;;;;;4.17;3.90;;;26.30;93.50;;;;;;5005256;28;20203;-92
2022/08/01 12:29:56;;;;;;;4.20;3.90;;;26.30;93.90;;;;;;5007806;28;20436;-92
2022/08/01 12:32:29;;;;;;;4.27;3.97;;;26.40;93.70;;;;;;5008466;28;20482;-92
2022/08/01 12:34:55;;;;;;;4.13;3.90;;;26.50;92.90;;;;;;5003909;28;20438;-93
2022/08/01 12:37:22;;;;;;;4.47;4.17;;;26.60;92.90;;;;;;5007126;28;21328;-92
2022/08/01 12:39:47;;;;;;;4.20;3.90;;;26.70;92.90;;;;;;5003120;28;20500;-93
2022/08/01 12:42:14;;;;;;;4.40;4.10;;;26.80;92.80;;;;;;5005931;28;20436;-93
2022/08/01 12:44:55;;;;;;;;;;;;;;;;;;;;;
2022/08/01 12:47:25;;;;;;;4.07;3.77;;;26.90;92.90;;;;;;5010064;28;20435;-92
2022/08/01 12:49:51;;;;;;;4.70;4.30;;;27.20;92.20;;;;;;5006224;28;20542;-93
2022/08/01 12:52:21;;;;;;;4.30;4.00;;;28.10;91.40;;;;;;5011225;28;20876;-93
2022/08/01 12:55:12;;;;;;;4.17;3.87;;;28.90;91.70;;;;;;4986309;28;20471;-93
2022/08/01 12:57:40;;;;;;;4.00;3.80;;;29.80;88.00;;;;;;5005126;28;20458;-93
2022/08/01 13:00:16;;;;;;;4.73;3.60;;;30.10;82.00;;;;;;5001706;28;20435;-91
2022/08/01 13:02:43;;;;;;;3.70;3.50;;;28.90;82.70;;;;;;4995947;28;20450;-93
2022/08/01 13:05:10;;;;;;;4.63;3.70;;;28.50;84.00;;;;;;5015097;28;20455;-93
2022/08/01 13:07:43;;;;;;;4.47;3.80;;;28.90;89.20;;;;;;5003230;28;20986;-92
2022/08/01 13:10:28;;;;;;;4.07;3.77;;;29.30;83.30;;;;;;5007557;28;20451;-93
2022/08/01 13:12:59;;;;;;;4.20;3.80;;;29.20;83.70;;;;;;5010197;28;20498;-92
2022/08/01 13:15:33;;;;;;;10.03;4.30;;;28.80;87.40;;;;;;5000769;28;20453;-93